sensor_id;sensor_type;location;lat;lon;timestamp;pressure;altitude;pressure_sealevel;temperature;humidity
41688;BME280;27371;42.686;23.362;2024-02-15T00:00:20;162930.19;;;2.81;72.84
41688;BME280;27371;42.686;23.362;2024-02-15T00:02:48;162932.88;;;2.82;72.86
41688;BME280;27371;42.686;23.362;2024-02-15T00:05:14;162918.25;;;2.76;72.94
41688;BME280;27371;42.686;23.362;2024-02-15T00:07:41;162886.31;;;2.64;72.89
41688;BME280;27371;42.686;23.362;2024-02-15T00:10:07;162922.22;;;2.78;72.75
41688;BME280;27371;42.686;23.362;2024-02-15T00:12:34;162916.94;;;2.76;72.75
41688;BME280;27371;42.686;23.362;2024-02-15T00:14:59;162915.56;;;2.75;72.92
41688;BME280;27371;42.686;23.362;2024-02-15T00:17:27;162874.38;;;2.59;72.66
41688;BME280;27371;42.686;23.362;2024-02-15T00:19:54;162928.88;;;2.80;72.75
41688;BME280;27371;42.686;23.362;2024-02-15T00:22:20;162916.94;;;2.76;72.75
41688;BME280;27371;42.686;23.362;2024-02-15T00:24:46;162920.91;;;2.77;72.76
41688;BME280;27371;42.686;23.362;2024-02-15T00:27:14;162882.34;;;2.62;72.67
41688;BME280;27371;42.686;23.362;2024-02-15T00:29:41;162891.66;;;2.66;72.79
41688;BME280;27371;42.686;23.362;2024-02-15T00:32:06;162908.91;;;2.73;72.42
41688;BME280;27371;42.686;23.362;2024-02-15T00:34:32;162906.28;;;2.72;72.69
41688;BME280;27371;42.686;23.362;2024-02-15T00:36:58;162900.94;;;2.70;72.59
41688;BME280;27371;42.686;23.362;2024-02-15T00:39:24;162900.94;;;2.70;72.88
41688;BME280;27371;42.686;23.362;2024-02-15T00:41:50;162791.94;;;2.28;72.80
41688;BME280;27371;42.686;23.362;2024-02-15T00:44:16;162886.31;;;2.64;72.96
41688;BME280;27371;42.686;23.362;2024-02-15T00:46:43;162867.75;;;2.57;73.13
41688;BME280;27371;42.686;23.362;2024-02-15T00:49:08;162892.97;;;2.66;72.65
41688;BME280;27371;42.686;23.362;2024-02-15T00:51:37;162890.34;;;2.65;72.36
41688;BME280;27371;42.686;23.362;2024-02-15T00:54:03;162898.31;;;2.68;72.54
41688;BME280;27371;42.686;23.362;2024-02-15T00:56:29;162873.03;;;2.59;72.53
41688;BME280;27371;42.686;23.362;2024-02-15T00:59:01;162871.69;;;2.58;72.76
41688;BME280;27371;42.686;23.362;2024-02-15T01:01:32;162886.31;;;2.64;72.75
41688;BME280;27371;42.686;23.362;2024-02-15T01:03:58;162891.66;;;2.66;72.45
41688;BME280;27371;42.686;23.362;2024-02-15T01:06:23;162885.00;;;2.63;72.80
41688;BME280;27371;42.686;23.362;2024-02-15T01:08:49;162842.47;;;2.47;72.45
41688;BME280;27371;42.686;23.362;2024-02-15T01:11:15;162889.00;;;2.65;72.77
41688;BME280;27371;42.686;23.362;2024-02-15T01:13:40;162866.38;;;2.56;72.63
41688;BME280;27371;42.686;23.362;2024-02-15T01:16:07;162870.38;;;2.58;72.66
41688;BME280;27371;42.686;23.362;2024-02-15T01:18:33;162863.72;;;2.55;72.68
41688;BME280;27371;42.686;23.362;2024-02-15T01:20:58;162887.66;;;2.64;72.98
41688;BME280;27371;42.686;23.362;2024-02-15T01:23:24;162907.59;;;2.72;72.56
41688;BME280;27371;42.686;23.362;2024-02-15T01:25:50;162916.94;;;2.76;72.04
41688;BME280;27371;42.686;23.362;2024-02-15T01:28:16;162935.53;;;2.83;72.09
41688;BME280;27371;42.686;23.362;2024-02-15T01:30:42;162924.91;;;2.79;71.93
41688;BME280;27371;42.686;23.362;2024-02-15T01:33:11;162959.44;;;2.92;71.46
41688;BME280;27371;42.686;23.362;2024-02-15T01:35:37;162914.25;;;2.75;71.21
41688;BME280;27371;42.686;23.362;2024-02-15T01:38:03;162865.06;;;2.56;71.35
41688;BME280;27371;42.686;23.362;2024-02-15T01:40:29;162830.47;;;2.42;72.70
41688;BME280;27371;42.686;23.362;2024-02-15T01:42:54;162819.88;;;2.38;73.75
41688;BME280;27371;42.686;23.362;2024-02-15T01:45:20;162826.50;;;2.41;74.14
41688;BME280;27371;42.686;23.362;2024-02-15T01:47:48;162839.81;;;2.46;73.73
41688;BME280;27371;42.686;23.362;2024-02-15T01:50:15;162850.44;;;2.50;73.38
41688;BME280;27371;42.686;23.362;2024-02-15T01:52:43;162835.81;;;2.44;73.28
41688;BME280;27371;42.686;23.362;2024-02-15T01:55:14;162855.75;;;2.52;72.78
41688;BME280;27371;42.686;23.362;2024-02-15T01:57:44;162866.38;;;2.56;72.64
41688;BME280;27371;42.686;23.362;2024-02-15T02:00:11;162870.38;;;2.58;72.51
41688;BME280;27371;42.686;23.362;2024-02-15T02:02:39;162846.47;;;2.49;72.41
41688;BME280;27371;42.686;23.362;2024-02-15T02:05:07;162835.81;;;2.44;72.61
41688;BME280;27371;42.686;23.362;2024-02-15T02:07:33;162846.47;;;2.49;72.91
41688;BME280;27371;42.686;23.362;2024-02-15T02:09:59;162843.78;;;2.48;72.89
41688;BME280;27371;42.686;23.362;2024-02-15T02:12:24;162834.47;;;2.44;73.23
41688;BME280;27371;42.686;23.362;2024-02-15T02:14:53;162847.78;;;2.49;73.24
41688;BME280;27371;42.686;23.362;2024-02-15T02:17:19;162842.47;;;2.47;73.12
41688;BME280;27371;42.686;23.362;2024-02-15T02:19:45;162830.47;;;2.42;73.43
41688;BME280;27371;42.686;23.362;2024-02-15T02:22:11;162830.47;;;2.42;73.16
41688;BME280;27371;42.686;23.362;2024-02-15T02:27:28;162830.47;;;2.42;73.39
41688;BME280;27371;42.686;23.362;2024-02-15T02:29:54;162797.28;;;2.30;73.85
41688;BME280;27371;42.686;23.362;2024-02-15T02:32:21;162834.47;;;2.44;73.56
41688;BME280;27371;42.686;23.362;2024-02-15T02:34:47;162778.66;;;2.22;73.72
41688;BME280;27371;42.686;23.362;2024-02-15T02:37:12;162826.50;;;2.41;73.61
41688;BME280;27371;42.686;23.362;2024-02-15T02:39:39;162826.50;;;2.41;73.75
41688;BME280;27371;42.686;23.362;2024-02-15T02:42:05;162825.19;;;2.40;73.69
41688;BME280;27371;42.686;23.362;2024-02-15T02:44:30;162791.94;;;2.28;73.74
41688;BME280;27371;42.686;23.362;2024-02-15T02:46:56;162815.84;;;2.37;73.64
41688;BME280;27371;42.686;23.362;2024-02-15T02:49:22;162797.28;;;2.30;73.98
41688;BME280;27371;42.686;23.362;2024-02-15T02:51:48;162810.56;;;2.35;73.97
41688;BME280;27371;42.686;23.362;2024-02-15T02:54:13;162790.63;;;2.27;73.66
41688;BME280;27371;42.686;23.362;2024-02-15T02:56:40;162803.94;;;2.32;74.05
41688;BME280;27371;42.686;23.362;2024-02-15T02:59:09;162809.22;;;2.34;74.36
41688;BME280;27371;42.686;23.362;2024-02-15T03:01:34;162807.88;;;2.34;74.22
41688;BME280;27371;42.686;23.362;2024-02-15T03:04:00;162764.03;;;2.17;74.54
41688;BME280;27371;42.686;23.362;2024-02-15T03:06:26;162783.97;;;2.25;74.44
41688;BME280;27371;42.686;23.362;2024-02-15T03:08:53;162790.63;;;2.27;74.51
41688;BME280;27371;42.686;23.362;2024-02-15T03:11:22;162770.69;;;2.19;74.38
41688;BME280;27371;42.686;23.362;2024-02-15T03:13:48;162772.00;;;2.20;74.42
41688;BME280;27371;42.686;23.362;2024-02-15T03:16:14;162768.03;;;2.18;74.74
41688;BME280;27371;42.686;23.362;2024-02-15T03:18:40;162768.03;;;2.18;74.95
41688;BME280;27371;42.686;23.362;2024-02-15T03:21:06;162776.00;;;2.21;74.84
41688;BME280;27371;42.686;23.362;2024-02-15T03:23:33;162779.97;;;2.23;74.87
41688;BME280;27371;42.686;23.362;2024-02-15T03:26:01;162783.97;;;2.25;74.85
41688;BME280;27371;42.686;23.362;2024-02-15T03:28:27;162776.00;;;2.21;74.82
41688;BME280;27371;42.686;23.362;2024-02-15T03:30:52;162764.03;;;2.17;74.87
41688;BME280;27371;42.686;23.362;2024-02-15T03:33:18;162765.34;;;2.17;74.68
41688;BME280;27371;42.686;23.362;2024-02-15T03:35:43;162750.72;;;2.12;74.94
41688;BME280;27371;42.686;23.362;2024-02-15T03:38:09;162745.47;;;2.10;75.05
41688;BME280;27371;42.686;23.362;2024-02-15T03:40:34;162741.44;;;2.08;75.40
41688;BME280;27371;42.686;23.362;2024-02-15T03:43:00;162720.19;;;2.00;75.54
41688;BME280;27371;42.686;23.362;2024-02-15T03:45:26;162732.16;;;2.05;75.41
41688;BME280;27371;42.686;23.362;2024-02-15T03:47:52;162736.13;;;2.06;75.66
41688;BME280;27371;42.686;23.362;2024-02-15T03:50:18;162721.50;;;2.00;75.52
41688;BME280;27371;42.686;23.362;2024-02-15T03:52:45;162721.50;;;2.00;75.64
41688;BME280;27371;42.686;23.362;2024-02-15T03:55:11;162716.16;;;1.98;75.72
41688;BME280;27371;42.686;23.362;2024-02-15T03:57:40;162705.56;;;1.94;75.96
41688;BME280;27371;42.686;23.362;2024-02-15T04:00:07;162671.00;;;1.81;76.05
41688;BME280;27371;42.686;23.362;2024-02-15T04:02:33;162678.97;;;1.84;76.05
41688;BME280;27371;42.686;23.362;2024-02-15T04:05:00;162697.59;;;1.91;76.15
41688;BME280;27371;42.686;23.362;2024-02-15T04:07:26;162708.19;;;1.95;76.15
41688;BME280;27371;42.686;23.362;2024-02-15T04:09:53;162676.34;;;1.83;76.11
41688;BME280;27371;42.686;23.362;2024-02-15T04:12:18;162664.34;;;1.78;75.79
41688;BME280;27371;42.686;23.362;2024-02-15T04:14:44;162696.28;;;1.91;76.25
41688;BME280;27371;42.686;23.362;2024-02-15T04:17:13;162696.28;;;1.91;75.92
41688;BME280;27371;42.686;23.362;2024-02-15T04:19:44;162651.06;;;1.73;76.15
41688;BME280;27371;42.686;23.362;2024-02-15T04:22:10;162690.94;;;1.89;76.39
41688;BME280;27371;42.686;23.362;2024-02-15T04:24:36;162682.97;;;1.86;76.44
41688;BME280;27371;42.686;23.362;2024-02-15T04:27:09;162497.00;;;1.14;76.11
41688;BME280;27371;42.686;23.362;2024-02-15T04:29:37;162669.69;;;1.81;76.57
41688;BME280;27371;42.686;23.362;2024-02-15T04:32:05;162681.66;;;1.85;76.00
41688;BME280;27371;42.686;23.362;2024-02-15T04:34:35;162675.00;;;1.83;76.39
41688;BME280;27371;42.686;23.362;2024-02-15T04:37:01;162680.28;;;1.85;76.51
41688;BME280;27371;42.686;23.362;2024-02-15T04:39:32;162648.44;;;1.72;76.67
41688;BME280;27371;42.686;23.362;2024-02-15T04:41:57;162660.41;;;1.77;76.69
41688;BME280;27371;42.686;23.362;2024-02-15T04:44:23;162698.91;;;1.92;76.41
41688;BME280;27371;42.686;23.362;2024-02-15T04:46:52;162705.56;;;1.94;76.25
41688;BME280;27371;42.686;23.362;2024-02-15T04:49:19;162696.28;;;1.91;76.30
41688;BME280;27371;42.686;23.362;2024-02-15T04:51:44;162669.69;;;1.81;76.23
41688;BME280;27371;42.686;23.362;2024-02-15T04:54:10;162685.63;;;1.87;76.08
41688;BME280;27371;42.686;23.362;2024-02-15T04:56:42;162672.31;;;1.82;76.56
41688;BME280;27371;42.686;23.362;2024-02-15T04:59:09;162661.72;;;1.77;76.95
41688;BME280;27371;42.686;23.362;2024-02-15T05:01:37;162656.41;;;1.75;76.80
41688;BME280;27371;42.686;23.362;2024-02-15T05:04:03;162637.81;;;1.68;77.23
41688;BME280;27371;42.686;23.362;2024-02-15T05:06:33;162656.41;;;1.75;77.34
41688;BME280;27371;42.686;23.362;2024-02-15T05:08:59;162656.41;;;1.75;77.17
41688;BME280;27371;42.686;23.362;2024-02-15T05:11:25;162647.09;;;1.72;77.30
41688;BME280;27371;42.686;23.362;2024-02-15T05:13:52;162616.56;;;1.60;78.00
41688;BME280;27371;42.686;23.362;2024-02-15T05:16:18;162629.81;;;1.65;77.66
41688;BME280;27371;42.686;23.362;2024-02-15T05:18:44;162659.09;;;1.76;79.31
41688;BME280;27371;42.686;23.362;2024-02-15T05:21:11;162807.88;;;2.34;78.19
41688;BME280;27371;42.686;23.362;2024-02-15T05:23:36;162776.00;;;2.21;75.67
41688;BME280;27371;42.686;23.362;2024-02-15T05:26:03;162697.59;;;1.91;75.28
41688;BME280;27371;42.686;23.362;2024-02-15T05:28:29;162669.69;;;1.81;75.69
41688;BME280;27371;42.686;23.362;2024-02-15T05:31:13;162596.63;;;1.52;76.99
41688;BME280;27371;42.686;23.362;2024-02-15T05:33:42;162621.84;;;1.62;77.79
41688;BME280;27371;42.686;23.362;2024-02-15T05:36:12;162619.19;;;1.61;78.98
41688;BME280;27371;42.686;23.362;2024-02-15T05:38:39;162625.84;;;1.64;78.69
41688;BME280;27371;42.686;23.362;2024-02-15T05:41:05;162639.13;;;1.69;78.49
41688;BME280;27371;42.686;23.362;2024-02-15T05:43:34;162645.78;;;1.71;77.76
41688;BME280;27371;42.686;23.362;2024-02-15T05:46:04;162649.75;;;1.73;77.79
41688;BME280;27371;42.686;23.362;2024-02-15T05:48:32;162647.09;;;1.72;77.68
41688;BME280;27371;42.686;23.362;2024-02-15T05:51:00;162649.75;;;1.73;77.38
41688;BME280;27371;42.686;23.362;2024-02-15T05:53:26;162655.06;;;1.75;77.26
41688;BME280;27371;42.686;23.362;2024-02-15T05:55:52;162655.06;;;1.75;77.17
41688;BME280;27371;42.686;23.362;2024-02-15T05:58:18;162653.75;;;1.74;77.47
41688;BME280;27371;42.686;23.362;2024-02-15T06:00:43;162589.97;;;1.50;77.53
41688;BME280;27371;42.686;23.362;2024-02-15T06:03:12;162659.09;;;1.76;77.26
41688;BME280;27371;42.686;23.362;2024-02-15T06:05:38;162643.09;;;1.70;77.46
41688;BME280;27371;42.686;23.362;2024-02-15T06:08:05;162644.41;;;1.71;77.12
41688;BME280;27371;42.686;23.362;2024-02-15T06:10:31;162665.69;;;1.79;77.26
41688;BME280;27371;42.686;23.362;2024-02-15T06:12:57;162668.38;;;1.80;77.30
41688;BME280;27371;42.686;23.362;2024-02-15T06:15:24;162675.00;;;1.83;77.50
41688;BME280;27371;42.686;23.362;2024-02-15T06:17:50;162673.69;;;1.82;77.20
41688;BME280;27371;42.686;23.362;2024-02-15T06:20:15;162538.19;;;1.30;77.00
41688;BME280;27371;42.686;23.362;2024-02-15T06:22:43;162677.66;;;1.84;77.31
41688;BME280;27371;42.686;23.362;2024-02-15T06:25:09;162714.84;;;1.98;77.13
41688;BME280;27371;42.686;23.362;2024-02-15T06:27:37;162708.19;;;1.95;76.74
41688;BME280;27371;42.686;23.362;2024-02-15T06:30:07;162705.56;;;1.94;76.98
41688;BME280;27371;42.686;23.362;2024-02-15T06:32:51;162717.53;;;1.99;76.28
41688;BME280;27371;42.686;23.362;2024-02-15T06:35:35;162690.94;;;1.89;76.53
41688;BME280;27371;42.686;23.362;2024-02-15T06:38:19;162672.31;;;1.82;76.34
41688;BME280;27371;42.686;23.362;2024-02-15T06:41:03;162709.56;;;1.96;76.48
41688;BME280;27371;42.686;23.362;2024-02-15T06:43:29;162749.41;;;2.11;76.32
41688;BME280;27371;42.686;23.362;2024-02-15T06:45:55;162736.13;;;2.06;75.78
41688;BME280;27371;42.686;23.362;2024-02-15T06:48:20;162726.81;;;2.03;75.25
41688;BME280;27371;42.686;23.362;2024-02-15T06:50:49;162678.97;;;1.84;76.41
41688;BME280;27371;42.686;23.362;2024-02-15T06:53:14;162685.63;;;1.87;77.26
41688;BME280;27371;42.686;23.362;2024-02-15T06:55:40;162712.22;;;1.97;76.92
41688;BME280;27371;42.686;23.362;2024-02-15T06:58:06;162728.16;;;2.03;76.85
41688;BME280;27371;42.686;23.362;2024-02-15T07:00:31;162733.47;;;2.05;76.40
41688;BME280;27371;42.686;23.362;2024-02-15T07:02:57;162791.94;;;2.28;75.96
41688;BME280;27371;42.686;23.362;2024-02-15T07:05:22;162834.47;;;2.44;74.65
41688;BME280;27371;42.686;23.362;2024-02-15T07:07:49;162875.72;;;2.60;74.05
41688;BME280;27371;42.686;23.362;2024-02-15T07:10:15;162939.53;;;2.84;73.22
41688;BME280;27371;42.686;23.362;2024-02-15T07:12:42;162966.09;;;2.95;72.45
41688;BME280;27371;42.686;23.362;2024-02-15T07:15:09;163023.28;;;3.17;71.66
41688;BME280;27371;42.686;23.362;2024-02-15T07:17:35;163051.22;;;3.27;71.55
41688;BME280;27371;42.686;23.362;2024-02-15T07:20:03;163095.09;;;3.44;70.75
41688;BME280;27371;42.686;23.362;2024-02-15T07:22:32;163112.44;;;3.51;70.33
41688;BME280;27371;42.686;23.362;2024-02-15T07:24:57;163145.66;;;3.64;69.17
41688;BME280;27371;42.686;23.362;2024-02-15T07:27:23;163123.03;;;3.55;69.06
41688;BME280;27371;42.686;23.362;2024-02-15T07:29:51;163073.81;;;3.36;68.60
41688;BME280;27371;42.686;23.362;2024-02-15T07:32:19;163161.66;;;3.70;68.93
41688;BME280;27371;42.686;23.362;2024-02-15T07:34:45;163241.50;;;4.00;68.38
41688;BME280;27371;42.686;23.362;2024-02-15T07:37:12;163280.06;;;4.15;66.94
41688;BME280;27371;42.686;23.362;2024-02-15T07:39:38;163310.66;;;4.27;66.36
41688;BME280;27371;42.686;23.362;2024-02-15T07:42:05;163321.34;;;4.31;66.74
41688;BME280;27371;42.686;23.362;2024-02-15T07:44:32;163335.97;;;4.37;66.33
41688;BME280;27371;42.686;23.362;2024-02-15T07:47:00;163374.56;;;4.52;65.30
41688;BME280;27371;42.686;23.362;2024-02-15T07:49:26;163378.56;;;4.53;64.47
41688;BME280;27371;42.686;23.362;2024-02-15T07:51:51;163389.19;;;4.57;64.27
41688;BME280;27371;42.686;23.362;2024-02-15T07:54:20;163443.81;;;4.78;64.58
41688;BME280;27371;42.686;23.362;2024-02-15T07:56:47;163449.13;;;4.80;63.75
41688;BME280;27371;42.686;23.362;2024-02-15T07:59:14;163497.03;;;4.99;63.38
41688;BME280;27371;42.686;23.362;2024-02-15T08:01:41;163502.38;;;5.01;63.83
41688;BME280;27371;42.686;23.362;2024-02-15T08:04:07;163545.00;;;5.17;63.54
41688;BME280;27371;42.686;23.362;2024-02-15T08:06:33;163571.66;;;5.27;62.51
41688;BME280;27371;42.686;23.362;2024-02-15T08:09:02;163554.31;;;5.21;61.84
41688;BME280;27371;42.686;23.362;2024-02-15T08:11:30;163509.03;;;5.03;62.03
41688;BME280;27371;42.686;23.362;2024-02-15T08:13:56;163622.25;;;5.47;61.98
41688;BME280;27371;42.686;23.362;2024-02-15T08:16:25;163646.22;;;5.56;61.39
41688;BME280;27371;42.686;23.362;2024-02-15T08:18:53;163666.22;;;5.64;61.23
41688;BME280;27371;42.686;23.362;2024-02-15T08:21:28;163726.16;;;5.87;60.40
41688;BME280;27371;42.686;23.362;2024-02-15T08:23:55;163775.50;;;6.06;59.41
41688;BME280;27371;42.686;23.362;2024-02-15T08:26:21;163791.50;;;6.12;59.36
41688;BME280;27371;42.686;23.362;2024-02-15T08:28:46;163810.16;;;6.19;59.35
41688;BME280;27371;42.686;23.362;2024-02-15T08:31:12;163842.13;;;6.31;58.81
41688;BME280;27371;42.686;23.362;2024-02-15T08:33:41;163872.81;;;6.43;58.24
41688;BME280;27371;42.686;23.362;2024-02-15T08:36:08;163898.13;;;6.53;58.04
41688;BME280;27371;42.686;23.362;2024-02-15T08:38:36;163943.47;;;6.70;57.03
41688;BME280;27371;42.686;23.362;2024-02-15T08:41:02;163976.78;;;6.83;56.62
41688;BME280;27371;42.686;23.362;2024-02-15T08:43:29;164008.81;;;6.95;56.07
41688;BME280;27371;42.686;23.362;2024-02-15T08:45:58;164011.44;;;6.96;56.76
41688;BME280;27371;42.686;23.362;2024-02-15T08:48:24;164016.78;;;6.98;56.65
41688;BME280;27371;42.686;23.362;2024-02-15T08:50:51;164016.78;;;6.98;57.29
41688;BME280;27371;42.686;23.362;2024-02-15T08:53:17;164019.44;;;6.99;56.01
41688;BME280;27371;42.686;23.362;2024-02-15T08:55:45;163971.44;;;6.81;56.10
41688;BME280;27371;42.686;23.362;2024-02-15T08:58:10;163987.47;;;6.87;56.37
41688;BME280;27371;42.686;23.362;2024-02-15T09:00:36;163996.78;;;6.90;55.47
41688;BME280;27371;42.686;23.362;2024-02-15T09:03:02;163988.78;;;6.87;56.39
41688;BME280;27371;42.686;23.362;2024-02-15T09:05:28;163990.13;;;6.88;56.00
41688;BME280;27371;42.686;23.362;2024-02-15T09:07:54;164040.78;;;7.07;55.03
41688;BME280;27371;42.686;23.362;2024-02-15T09:10:20;164019.44;;;6.99;54.81
41688;BME280;27371;42.686;23.362;2024-02-15T09:12:48;164003.44;;;6.93;55.12
41688;BME280;27371;42.686;23.362;2024-02-15T09:15:14;164032.78;;;7.04;56.11
41688;BME280;27371;42.686;23.362;2024-02-15T09:17:40;164038.13;;;7.06;55.39
41688;BME280;27371;42.686;23.362;2024-02-15T09:20:11;164016.78;;;6.98;54.49
41688;BME280;27371;42.686;23.362;2024-02-15T09:22:42;164038.13;;;7.06;54.01
41688;BME280;27371;42.686;23.362;2024-02-15T09:25:09;164038.13;;;7.06;54.33
41688;BME280;27371;42.686;23.362;2024-02-15T09:27:35;164055.44;;;7.13;54.65
41688;BME280;27371;42.686;23.362;2024-02-15T09:30:02;164048.78;;;7.10;55.10
41688;BME280;27371;42.686;23.362;2024-02-15T09:32:27;164056.78;;;7.13;55.19
41688;BME280;27371;42.686;23.362;2024-02-15T09:34:53;164082.13;;;7.23;54.84
41688;BME280;27371;42.686;23.362;2024-02-15T09:37:18;164134.13;;;7.43;53.25
41688;BME280;27371;42.686;23.362;2024-02-15T09:39:44;164159.50;;;7.53;52.80
41688;BME280;27371;42.686;23.362;2024-02-15T09:42:09;164102.16;;;7.31;52.37
41688;BME280;27371;42.686;23.362;2024-02-15T09:44:35;164152.81;;;7.50;52.25
41688;BME280;27371;42.686;23.362;2024-02-15T09:47:05;164158.13;;;7.52;51.74
41688;BME280;27371;42.686;23.362;2024-02-15T09:49:38;164150.13;;;7.49;51.57
41688;BME280;27371;42.686;23.362;2024-02-15T09:52:09;164147.47;;;7.48;51.58
41688;BME280;27371;42.686;23.362;2024-02-15T09:54:41;164170.13;;;7.57;52.07
41688;BME280;27371;42.686;23.362;2024-02-15T09:57:11;164203.50;;;7.70;52.31
41688;BME280;27371;42.686;23.362;2024-02-15T09:59:37;164206.16;;;7.71;52.30
41688;BME280;27371;42.686;23.362;2024-02-15T10:02:04;164156.78;;;7.52;51.67
41688;BME280;27371;42.686;23.362;2024-02-15T10:04:34;164122.09;;;7.39;52.12
41688;BME280;27371;42.686;23.362;2024-02-15T10:07:00;164104.78;;;7.32;52.92
41688;BME280;27371;42.686;23.362;2024-02-15T10:09:30;164134.13;;;7.43;53.62
41688;BME280;27371;42.686;23.362;2024-02-15T10:12:00;164150.13;;;7.49;52.98
41688;BME280;27371;42.686;23.362;2024-02-15T10:14:27;164167.50;;;7.56;52.94
41688;BME280;27371;42.686;23.362;2024-02-15T10:16:54;164020.78;;;7.00;51.78
41688;BME280;27371;42.686;23.362;2024-02-15T10:19:20;164227.50;;;7.79;51.49
41688;BME280;27371;42.686;23.362;2024-02-15T10:21:52;164232.84;;;7.81;51.44
41688;BME280;27371;42.686;23.362;2024-02-15T10:24:22;164239.53;;;7.84;51.71
41688;BME280;27371;42.686;23.362;2024-02-15T10:26:51;164243.50;;;7.85;51.48
41688;BME280;27371;42.686;23.362;2024-02-15T10:29:18;164207.47;;;7.71;51.46
41688;BME280;27371;42.686;23.362;2024-02-15T10:31:59;164244.88;;;7.86;51.64
41688;BME280;27371;42.686;23.362;2024-02-15T10:34:25;164279.53;;;7.99;51.31
41688;BME280;27371;42.686;23.362;2024-02-15T10:36:54;164307.53;;;8.10;50.92
41688;BME280;27371;42.686;23.362;2024-02-15T10:39:22;164288.91;;;8.02;51.02
41688;BME280;27371;42.686;23.362;2024-02-15T10:41:53;164259.53;;;7.91;51.22
41688;BME280;27371;42.686;23.362;2024-02-15T10:44:21;164231.53;;;7.80;50.95
41688;BME280;27371;42.686;23.362;2024-02-15T10:46:49;164255.53;;;7.90;50.93
41688;BME280;27371;42.686;23.362;2024-02-15T10:49:24;164258.16;;;7.91;50.85
41688;BME280;27371;42.686;23.362;2024-02-15T10:52:00;164224.84;;;7.78;51.05
41688;BME280;27371;42.686;23.362;2024-02-15T10:54:49;164240.84;;;7.84;51.54
41688;BME280;27371;42.686;23.362;2024-02-15T10:57:20;164226.19;;;7.78;52.31
41688;BME280;27371;42.686;23.362;2024-02-15T10:59:55;164174.16;;;7.58;52.16
41688;BME280;27371;42.686;23.362;2024-02-15T11:02:33;164207.47;;;7.71;52.41
41688;BME280;27371;42.686;23.362;2024-02-15T11:05:05;164192.81;;;7.66;52.01
41688;BME280;27371;42.686;23.362;2024-02-15T11:07:35;164091.44;;;7.27;52.16
41688;BME280;27371;42.686;23.362;2024-02-15T11:10:02;164154.16;;;7.51;52.58
41688;BME280;27371;42.686;23.362;2024-02-15T11:12:36;164152.81;;;7.50;53.19
41688;BME280;27371;42.686;23.362;2024-02-15T11:15:03;164175.50;;;7.59;53.70
41688;BME280;27371;42.686;23.362;2024-02-15T11:20:09;164194.13;;;7.66;53.19
41688;BME280;27371;42.686;23.362;2024-02-15T11:22:39;164140.81;;;7.46;53.33
41688;BME280;27371;42.686;23.362;2024-02-15T11:25:07;164171.47;;;7.57;52.57
41688;BME280;27371;42.686;23.362;2024-02-15T11:27:40;164250.16;;;7.88;52.69
41688;BME280;27371;42.686;23.362;2024-02-15T11:30:06;164270.19;;;7.95;52.26
41688;BME280;27371;42.686;23.362;2024-02-15T11:32:42;164272.84;;;7.96;52.64
41688;BME280;27371;42.686;23.362;2024-02-15T11:35:14;164268.88;;;7.95;52.37
41688;BME280;27371;42.686;23.362;2024-02-15T11:43:09;164188.84;;;7.64;53.78
41688;BME280;27371;42.686;23.362;2024-02-15T11:45:36;164178.13;;;7.60;53.94
41688;BME280;27371;42.686;23.362;2024-02-15T11:48:10;164206.16;;;7.71;53.74
41688;BME280;27371;42.686;23.362;2024-02-15T11:50:39;164188.84;;;7.64;53.62
41688;BME280;27371;42.686;23.362;2024-02-15T11:53:06;164215.47;;;7.74;53.68
41688;BME280;27371;42.686;23.362;2024-02-15T11:55:35;164151.50;;;7.50;54.12
41688;BME280;27371;42.686;23.362;2024-02-15T11:58:04;164247.53;;;7.87;53.58
41688;BME280;27371;42.686;23.362;2024-02-15T12:00:38;164272.84;;;7.96;53.09
41688;BME280;27371;42.686;23.362;2024-02-15T12:03:23;164284.88;;;8.01;53.25
41688;BME280;27371;42.686;23.362;2024-02-15T12:06:07;164324.91;;;8.16;53.47
41688;BME280;27371;42.686;23.362;2024-02-15T12:08:53;164352.94;;;8.27;53.04
41688;BME280;27371;42.686;23.362;2024-02-15T12:11:38;164363.59;;;8.31;52.78
41688;BME280;27371;42.686;23.362;2024-02-15T12:17:44;164368.94;;;8.33;52.54
41688;BME280;27371;42.686;23.362;2024-02-15T12:20:28;164344.91;;;8.24;52.97
41688;BME280;27371;42.686;23.362;2024-02-15T12:22:54;164299.53;;;8.07;53.77
41688;BME280;27371;42.686;23.362;2024-02-15T12:25:20;164268.88;;;7.95;53.99
41688;BME280;27371;42.686;23.362;2024-02-15T12:27:52;164315.53;;;8.13;53.77
41688;BME280;27371;42.686;23.362;2024-02-15T12:30:19;164332.91;;;8.19;53.53
41688;BME280;27371;42.686;23.362;2024-02-15T12:32:51;164363.59;;;8.31;53.23
41688;BME280;27371;42.686;23.362;2024-02-15T12:35:19;164356.91;;;8.29;52.95
41688;BME280;27371;42.686;23.362;2024-02-15T12:37:46;164394.31;;;8.43;52.74
41688;BME280;27371;42.686;23.362;2024-02-15T12:40:18;164439.75;;;8.60;52.87
41688;BME280;27371;42.686;23.362;2024-02-15T12:42:44;164459.72;;;8.68;52.27
41688;BME280;27371;42.686;23.362;2024-02-15T12:45:19;164501.13;;;8.84;51.85
41688;BME280;27371;42.686;23.362;2024-02-15T12:47:51;164571.88;;;9.11;51.48
41688;BME280;27371;42.686;23.362;2024-02-15T12:50:19;164606.59;;;9.24;50.69
41688;BME280;27371;42.686;23.362;2024-02-15T12:52:47;164603.91;;;9.23;50.84
41688;BME280;27371;42.686;23.362;2024-02-15T12:55:18;164597.22;;;9.21;50.33
41688;BME280;27371;42.686;23.362;2024-02-15T12:57:48;164682.69;;;9.53;50.14
41688;BME280;27371;42.686;23.362;2024-02-15T13:00:24;164650.66;;;9.41;49.51
41688;BME280;27371;42.686;23.362;2024-02-15T13:02:54;164602.56;;;9.23;50.25
41688;BME280;27371;42.686;23.362;2024-02-15T13:05:21;164590.59;;;9.18;50.35
41688;BME280;27371;42.686;23.362;2024-02-15T13:07:48;164518.50;;;8.90;50.53